Time;durP1;ratioP1;P1;durP2;ratioP2;P2;SDS_P1;SDS_P2;PMS_P1;PMS_P2;Temp;Humidity;BMP_temperature;BMP_pressure;BME280_temperature;BME280_humidity;BME280_pressure;Samples;Min_cycle;Max_cycle;Signal;HPM_P1;HPM_P2
2023/05/30 00:02:01;;;;;;;7.63;2.33;;;13.50;59.90;;;;;;5070621;28;20529;-76
2023/05/30 00:04:28;;;;;;;11.80;2.50;;;13.30;60.00;;;;;;5072217;28;20068;-76
2023/05/30 00:06:57;;;;;;;9.57;2.30;;;13.30;60.30;;;;;;5070872;28;20308;-78
2023/05/30 00:09:24;;;;;;;9.32;2.22;;;13.30;60.40;;;;;;5070352;28;20473;-77
2023/05/30 00:11:54;;;;;;;12.65;2.97;;;13.30;60.50;;;;;;5070559;28;20060;-76
2023/05/30 00:14:23;;;;;;;7.10;2.25;;;13.30;60.40;;;;;;5070935;28;20045;-77
2023/05/30 00:16:51;;;;;;;13.03;2.47;;;13.30;60.70;;;;;;5070665;28;20053;-77
2023/05/30 00:19:19;;;;;;;10.88;2.60;;;13.30;60.60;;;;;;5070797;28;20344;-77
2023/05/30 00:21:47;;;;;;;10.88;2.25;;;13.30;60.70;;;;;;5070081;28;20633;-77
2023/05/30 00:24:15;;;;;;;9.48;2.63;;;13.20;60.90;;;;;;5070351;28;20103;-77
2023/05/30 00:26:42;;;;;;;9.20;2.25;;;13.10;61.20;;;;;;5074053;28;20106;-77
2023/05/30 00:29:09;;;;;;;8.37;2.17;;;13.10;61.10;;;;;;5072372;28;20083;-76
2023/05/30 00:31:38;;;;;;;8.93;2.10;;;13.10;61.20;;;;;;5053941;28;20374;-77
2023/05/30 00:34:05;;;;;;;9.38;2.63;;;13.10;61.00;;;;;;5070130;28;20045;-76
2023/05/30 00:36:32;;;;;;;10.98;2.20;;;13.10;61.00;;;;;;5053541;28;20123;-76
2023/05/30 00:38:59;;;;;;;10.85;2.40;;;13.10;61.10;;;;;;5069463;28;20052;-77
2023/05/30 00:41:28;;;;;;;8.30;2.43;;;13.10;61.10;;;;;;5062359;28;20498;-77
2023/05/30 00:43:55;;;;;;;10.85;2.75;;;13.10;61.40;;;;;;5092114;28;20280;-76
2023/05/30 00:46:23;;;;;;;8.35;2.15;;;13.10;61.60;;;;;;5051672;28;20049;-76
2023/05/30 00:48:52;;;;;;;8.77;2.17;;;13.10;61.50;;;;;;5069245;28;20057;-76
2023/05/30 00:51:20;;;;;;;9.02;2.63;;;13.10;61.50;;;;;;5068362;28;20056;-78
2023/05/30 00:53:47;;;;;;;9.30;2.40;;;13.10;61.50;;;;;;5068429;28;20057;-76
2023/05/30 00:56:15;;;;;;;10.18;2.65;;;13.10;61.60;;;;;;5053029;28;20866;-76
2023/05/30 00:58:44;;;;;;;10.27;2.83;;;13.00;61.70;;;;;;5053729;28;20132;-77
2023/05/30 01:01:12;;;;;;;9.13;2.70;;;13.00;61.80;;;;;;5071302;28;20491;-76
2023/05/30 01:03:39;;;;;;;6.85;2.50;;;13.00;61.80;;;;;;5052853;28;20045;-76
2023/05/30 01:06:09;;;;;;;9.93;2.90;;;12.90;61.80;;;;;;5069483;28;20063;-77
2023/05/30 01:08:37;;;;;;;10.55;2.95;;;13.00;61.90;;;;;;5069415;28;20240;-76
2023/05/30 01:11:15;;;;;;;8.55;2.28;;;13.00;61.80;;;;;;5069355;28;20048;-77
2023/05/30 01:13:51;;;;;;;10.82;2.80;;;13.00;62.00;;;;;;5052890;28;20044;-77
2023/05/30 01:16:24;;;;;;;6.60;2.00;;;12.90;61.90;;;;;;5052497;28;20049;-76
2023/05/30 01:18:56;;;;;;;7.30;2.37;;;12.90;61.90;;;;;;5052791;28;20052;-77
2023/05/30 01:21:27;;;;;;;9.52;2.65;;;12.90;62.10;;;;;;5070761;28;20260;-77
2023/05/30 01:24:07;;;;;;;8.40;2.30;;;12.90;62.10;;;;;;5069625;28;20060;-76
2023/05/30 01:26:53;;;;;;;7.97;2.20;;;12.90;62.00;;;;;;5052408;28;20049;-76
2023/05/30 01:29:24;;;;;;;9.23;2.40;;;12.90;62.20;;;;;;5052797;28;20045;-77
2023/05/30 01:31:51;;;;;;;7.90;2.50;;;12.90;62.20;;;;;;5052436;28;20084;-76
2023/05/30 01:34:19;;;;;;;7.63;2.25;;;12.80;62.30;;;;;;5069876;28;20266;-76
2023/05/30 01:36:46;;;;;;;8.73;2.47;;;12.80;62.10;;;;;;5052055;28;20112;-77
2023/05/30 01:39:14;;;;;;;9.68;2.70;;;12.90;62.20;;;;;;5052754;28;20072;-76
2023/05/30 01:41:48;;;;;;;7.15;2.20;;;12.90;62.40;;;;;;5052335;28;20485;-77
2023/05/30 01:44:23;;;;;;;9.43;2.57;;;12.90;62.30;;;;;;5070943;28;20283;-76
2023/05/30 01:47:00;;;;;;;6.50;2.25;;;12.90;62.20;;;;;;5052234;28;20276;-76
2023/05/30 01:49:33;;;;;;;9.13;2.53;;;12.90;62.20;;;;;;5052143;28;20179;-76
2023/05/30 01:52:03;;;;;;;8.10;2.42;;;12.90;62.30;;;;;;5052192;28;20048;-77
2023/05/30 01:54:32;;;;;;;9.02;2.25;;;12.80;62.40;;;;;;5069139;28;20486;-76
2023/05/30 01:57:06;;;;;;;9.43;3.10;;;12.80;62.40;;;;;;5052123;28;20045;-77
2023/05/30 01:59:34;;;;;;;6.97;2.30;;;12.80;62.50;;;;;;5068996;28;20240;-76
2023/05/30 02:02:03;;;;;;;9.98;2.60;;;12.80;62.50;;;;;;5052102;28;20527;-76
2023/05/30 02:04:31;;;;;;;9.70;2.40;;;12.80;62.60;;;;;;5069391;28;20061;-77
2023/05/30 02:06:58;;;;;;;8.63;2.17;;;12.80;62.60;;;;;;5068949;28;20053;-77
2023/05/30 02:09:26;;;;;;;10.67;2.47;;;12.80;62.60;;;;;;5068768;28;20049;-77
2023/05/30 02:11:53;;;;;;;8.85;2.78;;;12.80;62.50;;;;;;5068901;28;20283;-76
2023/05/30 02:14:20;;;;;;;7.50;2.28;;;12.80;62.60;;;;;;5051863;28;20107;-77
2023/05/30 02:16:47;;;;;;;9.60;2.30;;;12.80;62.70;;;;;;5052194;28;20059;-76
2023/05/30 02:19:19;;;;;;;7.63;1.90;;;12.80;62.70;;;;;;5051932;28;20103;-77
2023/05/30 02:21:46;;;;;;;9.20;2.30;;;12.70;62.70;;;;;;5068318;28;20129;-76
2023/05/30 02:24:15;;;;;;;8.68;2.28;;;12.70;62.50;;;;;;5085617;28;20259;-76
2023/05/30 02:26:42;;;;;;;7.88;2.25;;;12.80;62.50;;;;;;5068274;28;20057;-76
2023/05/30 02:29:10;;;;;;;8.77;2.65;;;12.80;62.40;;;;;;5052171;28;20505;-77
2023/05/30 02:31:37;;;;;;;10.15;2.30;;;12.80;62.50;;;;;;5068775;28;20044;-76
2023/05/30 02:34:05;;;;;;;6.73;2.17;;;12.80;62.50;;;;;;5051409;28;20933;-77
2023/05/30 02:36:33;;;;;;;6.88;2.35;;;12.70;62.50;;;;;;5051659;28;20276;-77
2023/05/30 02:39:06;;;;;;;7.30;2.25;;;12.70;62.30;;;;;;5051787;28;20040;-76
2023/05/30 02:41:33;;;;;;;8.30;2.28;;;12.70;62.40;;;;;;5051360;28;20041;-77
2023/05/30 02:44:00;;;;;;;7.93;2.53;;;12.70;62.20;;;;;;5051450;28;20037;-77
2023/05/30 02:46:27;;;;;;;8.73;2.50;;;12.70;62.20;;;;;;5050968;28;20045;-77
2023/05/30 02:48:54;;;;;;;9.65;2.75;;;12.70;62.20;;;;;;5067955;28;20335;-76
2023/05/30 02:51:21;;;;;;;6.50;2.20;;;12.70;62.20;;;;;;5051302;28;20052;-76
2023/05/30 02:53:50;;;;;;;8.27;2.33;;;12.70;62.30;;;;;;5051136;28;20676;-76
2023/05/30 02:56:23;;;;;;;7.45;2.20;;;12.70;62.20;;;;;;5051697;28;20041;-76
2023/05/30 02:58:59;;;;;;;10.13;2.50;;;12.70;62.20;;;;;;5068362;28;20056;-78
2023/05/30 03:01:40;;;;;;;6.38;2.10;;;12.70;62.20;;;;;;5067746;28;20729;-76
2023/05/30 03:04:07;;;;;;;9.52;2.28;;;12.70;62.30;;;;;;5050838;28;20041;-76
2023/05/30 03:06:40;;;;;;;7.35;2.10;;;12.70;62.30;;;;;;5051001;28;20068;-76
2023/05/30 03:09:18;;;;;;;7.88;1.95;;;12.70;62.30;;;;;;5050907;28;20100;-76
2023/05/30 03:11:45;;;;;;;8.17;2.40;;;12.70;62.30;;;;;;5066696;28;20060;-77
2023/05/30 03:14:12;;;;;;;7.78;2.13;;;12.70;62.30;;;;;;5050878;28;20263;-77
2023/05/30 03:16:40;;;;;;;8.25;2.10;;;12.70;62.40;;;;;;5084180;28;20466;-77
2023/05/30 03:19:09;;;;;;;8.55;2.58;;;12.70;62.60;;;;;;5051124;28;20049;-77
2023/05/30 03:21:37;;;;;;;8.57;2.20;;;12.70;62.70;;;;;;5050705;28;20044;-77
2023/05/30 03:24:07;;;;;;;7.20;2.27;;;12.70;62.60;;;;;;5084486;28;20522;-77
2023/05/30 03:26:42;;;;;;;10.32;2.80;;;12.70;62.70;;;;;;5050842;28;20292;-77
2023/05/30 03:29:10;;;;;;;9.13;2.90;;;12.70;62.70;;;;;;5067162;28;20362;-77
2023/05/30 03:31:37;;;;;;;7.65;2.70;;;12.70;62.70;;;;;;5068510;28;20168;-76
2023/05/30 03:34:04;;;;;;;14.25;2.78;;;12.70;62.80;;;;;;5050739;28;20041;-76
2023/05/30 03:36:33;;;;;;;9.27;2.60;;;12.70;62.80;;;;;;5050661;28;20049;-76
2023/05/30 03:39:00;;;;;;;8.77;2.60;;;12.70;62.80;;;;;;5050997;28;20260;-77
2023/05/30 03:41:27;;;;;;;10.65;2.50;;;12.70;62.70;;;;;;5067347;28;20531;-76
2023/05/30 03:43:55;;;;;;;9.95;2.53;;;12.70;62.80;;;;;;5067098;28;20458;-77
2023/05/30 03:46:22;;;;;;;11.93;3.05;;;12.70;62.70;;;;;;5051142;28;20053;-77
2023/05/30 03:48:50;;;;;;;9.23;2.63;;;12.70;62.80;;;;;;5067639;28;20091;-76
2023/05/30 03:51:17;;;;;;;11.85;2.80;;;12.70;62.80;;;;;;5067652;28;20255;-76
2023/05/30 03:53:44;;;;;;;9.52;2.58;;;12.70;63.00;;;;;;5050837;28;20073;-76
2023/05/30 03:56:11;;;;;;;9.32;2.33;;;12.70;63.00;;;;;;5050859;28;20134;-77
2023/05/30 03:58:38;;;;;;;10.13;2.90;;;12.70;63.10;;;;;;5050700;28;20041;-77
2023/05/30 04:01:07;;;;;;;9.70;2.60;;;12.70;63.20;;;;;;5051017;28;20140;-76
2023/05/30 04:03:35;;;;;;;9.20;2.40;;;12.70;63.20;;;;;;5067690;28;20251;-77
2023/05/30 04:06:05;;;;;;;7.30;2.60;;;12.70;63.10;;;;;;5050743;28;20521;-77
2023/05/30 04:08:32;;;;;;;9.63;2.47;;;12.70;63.10;;;;;;5067189;28;20049;-76
2023/05/30 04:10:59;;;;;;;10.27;2.40;;;12.70;63.10;;;;;;5050337;28;20048;-77
2023/05/30 04:13:26;;;;;;;10.53;2.70;;;12.70;63.30;;;;;;5050591;28;20052;-77
2023/05/30 04:15:53;;;;;;;7.68;2.60;;;12.70;63.40;;;;;;5047924;28;20354;-76
2023/05/30 04:18:21;;;;;;;8.52;2.78;;;12.70;63.20;;;;;;5069257;28;20048;-76
2023/05/30 04:20:48;;;;;;;7.60;2.20;;;12.70;63.30;;;;;;5052677;28;20487;-77
2023/05/30 04:23:15;;;;;;;9.48;2.58;;;12.70;63.20;;;;;;5067119;28;20048;-77
2023/05/30 04:25:44;;;;;;;9.80;2.80;;;12.80;63.20;;;;;;5059393;28;20135;-76
2023/05/30 04:28:12;;;;;;;11.93;3.05;;;12.70;63.50;;;;;;5073812;28;20251;-76
2023/05/30 04:30:40;;;;;;;9.45;2.97;;;12.70;63.40;;;;;;5071810;28;20144;-77
2023/05/30 04:33:11;;;;;;;8.95;2.72;;;12.70;63.60;;;;;;5060701;28;20581;-77
2023/05/30 04:35:41;;;;;;;11.65;2.95;;;12.70;63.50;;;;;;5058096;28;20048;-77
2023/05/30 04:38:09;;;;;;;10.10;2.77;;;12.70;63.60;;;;;;5059713;28;20049;-77
2023/05/30 04:40:37;;;;;;;10.10;2.90;;;12.70;63.60;;;;;;5079656;28;20874;-77
2023/05/30 04:43:04;;;;;;;10.63;2.80;;;12.70;63.70;;;;;;5060783;28;20050;-77
2023/05/30 04:45:36;;;;;;;7.18;2.30;;;12.70;63.70;;;;;;5064126;28;20048;-77
2023/05/30 04:48:04;;;;;;;10.90;2.70;;;12.70;63.90;;;;;;5051136;28;20045;-77
2023/05/30 04:50:31;;;;;;;9.20;2.77;;;12.80;63.80;;;;;;5065605;28;20103;-77
2023/05/30 04:52:59;;;;;;;9.20;2.60;;;12.80;63.70;;;;;;5070494;28;20256;-77
2023/05/30 04:55:26;;;;;;;11.32;2.60;;;12.80;63.70;;;;;;5061485;28;20075;-77
2023/05/30 04:57:55;;;;;;;9.00;2.50;;;12.80;63.50;;;;;;5055644;28;20049;-77
2023/05/30 05:00:22;;;;;;;11.77;2.50;;;12.80;63.50;;;;;;5055840;28;20115;-77
2023/05/30 05:02:51;;;;;;;8.97;2.40;;;12.80;63.40;;;;;;5069962;28;20055;-76
2023/05/30 05:05:18;;;;;;;7.70;2.50;;;12.90;63.40;;;;;;5068429;28;20358;-76
2023/05/30 05:07:45;;;;;;;9.73;2.50;;;12.90;63.50;;;;;;5073810;28;20093;-77
2023/05/30 05:10:13;;;;;;;7.65;2.05;;;12.90;63.50;;;;;;5076336;28;20052;-77
2023/05/30 05:12:40;;;;;;;9.25;2.65;;;12.90;63.10;;;;;;5094835;28;20049;-77
2023/05/30 05:15:08;;;;;;;8.67;2.60;;;12.90;63.10;;;;;;5080350;28;20061;-77
2023/05/30 05:17:36;;;;;;;8.52;2.25;;;12.90;63.30;;;;;;5107433;27;20324;-77
2023/05/30 05:20:05;;;;;;;9.57;2.80;;;13.00;63.30;;;;;;5078447;28;20056;-76
2023/05/30 05:22:33;;;;;;;9.88;2.50;;;13.00;63.50;;;;;;5073113;28;20045;-77
2023/05/30 05:25:00;;;;;;;9.15;2.60;;;13.00;63.30;;;;;;5081221;28;20136;-77
2023/05/30 05:27:28;;;;;;;9.00;2.60;;;13.00;63.40;;;;;;5062055;28;20056;-77
2023/05/30 05:29:55;;;;;;;8.85;2.65;;;13.00;63.60;;;;;;5081430;28;21187;-77
2023/05/30 05:32:23;;;;;;;9.27;2.65;;;13.00;63.90;;;;;;5080352;28;20135;-77
2023/05/30 05:34:52;;;;;;;10.73;2.85;;;13.00;64.00;;;;;;5078607;28;20052;-77
2023/05/30 05:37:19;;;;;;;8.35;2.60;;;13.00;64.00;;;;;;5080043;28;20134;-77
2023/05/30 05:39:46;;;;;;;8.57;2.93;;;13.00;63.70;;;;;;5078862;28;20076;-77
2023/05/30 05:42:13;;;;;;;12.60;3.40;;;13.00;64.00;;;;;;5075989;28;20678;-77
2023/05/30 05:44:41;;;;;;;11.02;2.70;;;13.00;64.10;;;;;;5080011;28;20059;-77
2023/05/30 05:47:08;;;;;;;8.90;2.72;;;13.10;64.10;;;;;;5079331;28;20473;-77
2023/05/30 05:49:35;;;;;;;9.15;2.55;;;13.10;64.20;;;;;;5080905;28;21119;-76
2023/05/30 05:52:02;;;;;;;8.77;2.77;;;13.10;64.00;;;;;;5077756;28;20049;-77
2023/05/30 05:54:29;;;;;;;9.63;2.60;;;13.10;64.30;;;;;;5075329;28;20291;-77
2023/05/30 05:56:56;;;;;;;9.75;2.70;;;13.10;64.40;;;;;;5075774;28;20045;-77
2023/05/30 05:59:23;;;;;;;9.93;2.95;;;13.10;64.70;;;;;;5078651;28;20057;-77
2023/05/30 06:01:52;;;;;;;8.90;2.30;;;13.10;64.70;;;;;;5071956;28;20638;-77
2023/05/30 06:04:20;;;;;;;8.57;2.47;;;13.10;64.70;;;;;;5072065;28;20146;-76
2023/05/30 06:06:47;;;;;;;9.48;2.38;;;13.20;65.00;;;;;;5068568;28;20268;-77
2023/05/30 06:09:15;;;;;;;10.23;2.55;;;13.20;64.80;;;;;;5068465;28;20138;-77
2023/05/30 06:11:42;;;;;;;9.13;2.40;;;13.20;64.80;;;;;;5070078;28;20103;-77
2023/05/30 06:14:09;;;;;;;8.25;2.30;;;13.30;65.00;;;;;;5070633;28;20063;-77
2023/05/30 06:16:36;;;;;;;8.57;2.10;;;13.30;65.00;;;;;;5066119;28;20096;-77
2023/05/30 06:19:04;;;;;;;8.13;2.17;;;13.30;65.10;;;;;;5065617;28;20264;-77
2023/05/30 06:21:32;;;;;;;9.77;2.83;;;13.30;65.20;;;;;;5063139;28;20049;-76
2023/05/30 06:23:59;;;;;;;8.85;2.70;;;13.30;65.30;;;;;;5049373;28;20973;-76
2023/05/30 06:26:26;;;;;;;8.02;2.33;;;13.30;65.60;;;;;;5069640;28;20055;-77
2023/05/30 06:28:53;;;;;;;7.53;2.07;;;13.30;65.50;;;;;;5067188;28;20068;-76
2023/05/30 06:31:20;;;;;;;10.00;2.42;;;13.30;65.60;;;;;;5069099;28;21303;-77
2023/05/30 06:33:52;;;;;;;7.75;2.15;;;13.30;65.80;;;;;;5068391;28;20055;-77
2023/05/30 06:36:20;;;;;;;6.68;2.13;;;13.30;65.90;;;;;;5048423;28;20140;-77
2023/05/30 06:38:48;;;;;;;7.60;1.98;;;13.30;65.90;;;;;;5072850;28;20053;-76
2023/05/30 06:41:15;;;;;;;10.47;2.10;;;13.30;65.90;;;;;;5068132;28;20071;-77
2023/05/30 06:43:42;;;;;;;6.30;1.90;;;13.30;66.10;;;;;;5064489;28;20864;-76
2023/05/30 06:46:09;;;;;;;7.47;2.03;;;13.30;66.10;;;;;;5060396;28;20053;-76
2023/05/30 06:48:36;;;;;;;8.50;2.03;;;13.30;66.10;;;;;;5070195;28;20074;-75
2023/05/30 06:51:04;;;;;;;4.82;1.77;;;13.30;66.00;;;;;;5080809;28;20048;-75
2023/05/30 06:53:33;;;;;;;6.97;2.03;;;13.40;66.20;;;;;;5061769;28;20048;-75
2023/05/30 06:56:00;;;;;;;8.75;2.00;;;13.40;66.40;;;;;;5078113;28;20264;-75
2023/05/30 06:58:27;;;;;;;6.88;2.10;;;13.40;66.40;;;;;;5078744;28;20163;-75
2023/05/30 07:00:55;;;;;;;8.00;1.88;;;13.40;66.50;;;;;;5072216;28;20171;-75
2023/05/30 07:03:22;;;;;;;6.63;1.80;;;13.50;66.50;;;;;;5068302;28;20055;-76
2023/05/30 07:05:49;;;;;;;6.50;2.20;;;13.40;66.70;;;;;;5063227;28;20521;-75
2023/05/30 07:08:16;;;;;;;8.50;1.98;;;13.50;67.00;;;;;;5080186;28;21257;-77
2023/05/30 07:10:45;;;;;;;9.13;1.90;;;13.50;66.90;;;;;;5067995;28;20200;-76
2023/05/30 07:13:12;;;;;;;6.68;1.92;;;13.50;67.00;;;;;;5065864;28;20059;-77
2023/05/30 07:15:39;;;;;;;8.35;1.90;;;13.50;66.90;;;;;;5068963;28;20643;-76
2023/05/30 07:18:06;;;;;;;6.13;1.67;;;13.50;66.90;;;;;;5076243;28;20057;-76
2023/05/30 07:20:33;;;;;;;5.68;1.70;;;13.50;66.80;;;;;;5061901;28;20257;-76
2023/05/30 07:23:00;;;;;;;8.15;1.85;;;13.50;66.60;;;;;;5061623;28;20049;-76
2023/05/30 07:25:27;;;;;;;5.60;1.40;;;13.50;66.90;;;;;;5065797;28;20676;-76
2023/05/30 07:27:57;;;;;;;6.43;1.80;;;13.50;66.90;;;;;;5068443;28;20514;-77
2023/05/30 07:30:24;;;;;;;6.97;2.07;;;13.50;67.00;;;;;;5066879;28;20162;-77
2023/05/30 07:32:51;;;;;;;5.80;1.90;;;13.50;66.90;;;;;;5065958;28;20274;-76
2023/05/30 07:35:18;;;;;;;7.72;1.75;;;13.50;66.70;;;;;;5074958;28;20044;-76
2023/05/30 07:37:45;;;;;;;6.47;1.58;;;13.60;66.70;;;;;;5085236;28;20049;-76
2023/05/30 07:40:17;;;;;;;7.13;1.50;;;13.60;66.90;;;;;;5067035;28;20049;-76
2023/05/30 07:42:44;;;;;;;8.07;2.07;;;13.60;67.20;;;;;;5068555;28;20146;-76
2023/05/30 07:45:12;;;;;;;5.57;1.40;;;13.60;67.10;;;;;;5054177;28;20250;-77
2023/05/30 07:47:39;;;;;;;5.75;1.70;;;13.60;67.30;;;;;;5072894;28;20821;-77
2023/05/30 07:50:07;;;;;;;7.03;1.83;;;13.60;67.20;;;;;;5075998;28;20052;-77
2023/05/30 07:52:35;;;;;;;5.05;1.60;;;13.60;67.10;;;;;;5087309;28;20152;-76
2023/05/30 07:55:02;;;;;;;5.23;1.73;;;13.70;67.30;;;;;;5103568;27;20050;-77
2023/05/30 07:57:30;;;;;;;5.35;1.67;;;13.70;67.20;;;;;;5062619;28;20307;-77
2023/05/30 07:59:57;;;;;;;4.97;1.67;;;13.70;67.20;;;;;;5078717;28;20094;-77
2023/05/30 08:02:26;;;;;;;5.30;1.60;;;13.70;67.50;;;;;;5080692;28;20932;-76
2023/05/30 08:04:53;;;;;;;5.32;1.60;;;13.70;67.60;;;;;;5078747;28;20040;-77
2023/05/30 08:07:20;;;;;;;5.83;1.70;;;13.70;67.50;;;;;;5063572;28;20159;-76
2023/05/30 08:09:48;;;;;;;5.45;1.65;;;13.70;67.50;;;;;;5092314;28;20274;-77
2023/05/30 08:12:19;;;;;;;7.70;1.60;;;13.70;67.80;;;;;;5076243;28;20136;-76
2023/05/30 08:14:47;;;;;;;6.32;1.50;;;13.70;67.40;;;;;;5107480;27;20056;-76
2023/05/30 08:17:16;;;;;;;4.85;1.20;;;13.70;67.20;;;;;;5076893;28;20238;-76
2023/05/30 08:19:44;;;;;;;5.23;1.30;;;13.80;67.40;;;;;;5073292;28;20091;-76
2023/05/30 08:22:12;;;;;;;4.78;1.27;;;13.90;67.70;;;;;;5078747;28;20284;-76
2023/05/30 08:24:41;;;;;;;7.68;1.40;;;13.90;67.70;;;;;;5073586;28;20056;-76
2023/05/30 08:27:10;;;;;;;4.55;1.33;;;13.90;68.10;;;;;;5102720;27;20120;-76
2023/05/30 08:29:38;;;;;;;5.70;1.25;;;13.90;68.30;;;;;;5107767;27;20465;-77
2023/05/30 08:32:06;;;;;;;3.93;1.17;;;13.90;68.20;;;;;;5078833;28;20056;-77
2023/05/30 08:34:34;;;;;;;4.05;1.30;;;13.90;67.80;;;;;;5075325;28;20767;-76
2023/05/30 08:37:03;;;;;;;5.88;1.40;;;13.90;68.10;;;;;;5071799;28;20537;-77
2023/05/30 08:39:57;;;;;;;3.83;1.10;;;13.90;68.30;;;;;;5079852;28;20056;-76
2023/05/30 08:42:25;;;;;;;3.28;0.90;;;13.90;67.10;;;;;;5080175;28;20050;-76
2023/05/30 08:44:52;;;;;;;4.70;1.03;;;14.00;67.60;;;;;;5074047;28;20316;-77
2023/05/30 08:47:21;;;;;;;5.22;1.00;;;14.00;68.70;;;;;;5076361;28;20271;-75
2023/05/30 08:49:52;;;;;;;4.30;1.13;;;14.00;68.30;;;;;;5070535;28;20432;-77
2023/05/30 08:52:22;;;;;;;4.07;1.20;;;14.00;68.60;;;;;;5067236;28;20049;-76
2023/05/30 08:54:58;;;;;;;4.00;1.00;;;14.00;68.60;;;;;;5068815;28;20059;-77
2023/05/30 08:57:31;;;;;;;4.13;1.20;;;14.00;68.50;;;;;;5052410;28;20063;-77
2023/05/30 08:59:59;;;;;;;3.45;1.08;;;14.00;68.60;;;;;;5070042;28;20773;-77
2023/05/30 09:02:27;;;;;;;4.63;1.30;;;14.10;68.00;;;;;;5080439;28;21602;-78
2023/05/30 09:04:56;;;;;;;3.80;1.10;;;14.10;67.90;;;;;;5054747;28;20067;-76
2023/05/30 09:07:26;;;;;;;5.30;1.33;;;14.10;68.00;;;;;;5101352;28;20609;-77
2023/05/30 09:09:54;;;;;;;4.73;1.20;;;14.20;68.00;;;;;;5073712;28;20132;-76
2023/05/30 09:12:22;;;;;;;5.38;1.30;;;14.20;67.90;;;;;;5074880;28;20355;-74
2023/05/30 09:14:48;;;;;;;5.47;1.25;;;14.20;67.80;;;;;;5077425;28;20096;-76
2023/05/30 09:17:15;;;;;;;4.55;1.75;;;14.20;68.10;;;;;;5061037;28;20044;-74
2023/05/30 09:19:43;;;;;;;3.45;1.30;;;14.20;68.30;;;;;;5054004;28;20609;-74
2023/05/30 09:22:10;;;;;;;4.80;1.20;;;14.30;68.40;;;;;;5062359;28;20139;-76
2023/05/30 09:25:00;;;;;;;4.57;1.40;;;14.30;68.10;;;;;;5068977;28;20256;-77
2023/05/30 09:27:28;;;;;;;4.53;1.30;;;14.30;67.80;;;;;;5072055;28;20144;-75
2023/05/30 09:29:55;;;;;;;4.80;1.20;;;14.30;67.60;;;;;;5070530;28;20063;-75
2023/05/30 09:32:28;;;;;;;4.85;1.20;;;14.40;67.50;;;;;;5079568;28;20072;-73
2023/05/30 09:34:56;;;;;;;3.47;1.20;;;14.40;67.70;;;;;;5078222;28;20053;-74
2023/05/30 09:37:24;;;;;;;3.17;0.90;;;14.40;67.70;;;;;;5071276;28;20641;-73
2023/05/30 09:40:12;;;;;;;3.85;1.30;;;14.40;67.30;;;;;;5074127;28;20497;-73
2023/05/30 09:42:40;;;;;;;3.97;1.02;;;14.50;67.20;;;;;;5086277;28;20158;-72
2023/05/30 09:45:09;;;;;;;4.32;1.30;;;14.50;67.30;;;;;;5075617;28;20532;-73
2023/05/30 09:47:40;;;;;;;4.53;1.23;;;14.50;67.30;;;;;;5094459;27;20045;-74
2023/05/30 09:50:09;;;;;;;3.83;1.20;;;14.60;67.40;;;;;;5095460;28;20255;-73
2023/05/30 09:52:37;;;;;;;4.00;1.27;;;14.60;67.50;;;;;;5055520;28;20073;-72
2023/05/30 09:55:05;;;;;;;4.05;1.30;;;14.60;67.30;;;;;;5078962;28;20152;-73
2023/05/30 09:57:36;;;;;;;3.58;1.10;;;14.60;67.30;;;;;;5072480;28;20085;-73
2023/05/30 10:00:11;;;;;;;5.07;1.50;;;14.60;67.20;;;;;;5063123;28;20497;-72
2023/05/30 10:02:42;;;;;;;4.28;1.30;;;14.70;67.20;;;;;;5074757;28;20279;-73
2023/05/30 10:05:19;;;;;;;9.02;1.63;;;14.70;67.20;;;;;;5074735;28;20052;-73
2023/05/30 10:07:48;;;;;;;3.70;1.10;;;14.70;67.20;;;;;;5072895;28;20057;-73
2023/05/30 10:10:15;;;;;;;4.78;1.38;;;14.70;67.50;;;;;;5079234;28;20586;-72
2023/05/30 10:12:44;;;;;;;5.47;1.40;;;14.70;67.50;;;;;;5079249;28;20055;-73
2023/05/30 10:15:11;;;;;;;2.85;1.08;;;14.70;67.70;;;;;;5070823;28;20256;-73
2023/05/30 10:17:45;;;;;;;5.18;1.30;;;14.70;67.60;;;;;;5054691;28;20099;-73
2023/05/30 10:20:14;;;;;;;4.25;1.15;;;14.80;67.60;;;;;;5074523;28;20051;-73
2023/05/30 10:22:44;;;;;;;3.60;1.20;;;14.80;67.20;;;;;;5072053;28;20505;-73
2023/05/30 10:25:12;;;;;;;5.23;1.40;;;14.80;67.30;;;;;;5069917;28;20045;-73
2023/05/30 10:27:47;;;;;;;5.68;1.50;;;14.80;67.20;;;;;;5064307;28;20392;-73
2023/05/30 10:30:19;;;;;;;4.43;1.15;;;14.80;67.20;;;;;;5097208;28;21102;-73
2023/05/30 10:32:51;;;;;;;4.78;1.70;;;14.90;66.90;;;;;;5062004;28;20330;-73
2023/05/30 10:35:20;;;;;;;4.78;1.30;;;14.90;66.90;;;;;;5060150;28;20536;-73
2023/05/30 10:37:48;;;;;;;5.47;1.30;;;14.90;66.90;;;;;;5057809;28;20556;-73
2023/05/30 10:40:27;;;;;;;3.95;0.98;;;14.90;66.80;;;;;;5066599;28;20256;-73
2023/05/30 10:43:07;;;;;;;5.68;1.13;;;14.90;66.50;;;;;;5067482;28;20049;-73
2023/05/30 10:45:53;;;;;;;3.53;1.13;;;15.00;66.70;;;;;;5071923;28;20049;-73
2023/05/30 10:48:26;;;;;;;2.70;0.80;;;15.00;66.90;;;;;;5087527;28;20050;-73
2023/05/30 10:50:59;;;;;;;3.30;1.10;;;15.00;66.90;;;;;;5093413;28;20045;-73
2023/05/30 10:53:26;;;;;;;4.72;1.15;;;15.00;66.90;;;;;;5075728;28;20299;-73
2023/05/30 10:55:53;;;;;;;3.40;0.85;;;15.00;67.00;;;;;;5073164;28;20049;-73
2023/05/30 10:58:38;;;;;;;3.67;1.08;;;15.00;66.90;;;;;;5071709;28;20040;-72
2023/05/30 11:01:25;;;;;;;3.60;1.13;;;15.10;66.90;;;;;;5074320;28;20045;-72
2023/05/30 11:04:03;;;;;;;4.07;0.90;;;15.10;66.80;;;;;;5092532;28;20048;-73
2023/05/30 11:06:33;;;;;;;2.63;0.90;;;15.20;66.50;;;;;;5067899;28;20915;-73
2023/05/30 11:09:08;;;;;;;2.88;0.90;;;15.20;66.40;;;;;;5068615;28;20061;-73
2023/05/30 11:11:39;;;;;;;2.47;0.70;;;15.20;66.20;;;;;;5064331;28;20076;-73
2023/05/30 11:14:08;;;;;;;4.32;0.93;;;15.20;66.20;;;;;;5059863;28;20107;-73
2023/05/30 11:16:48;;;;;;;6.80;0.80;;;15.30;66.10;;;;;;5068577;28;20539;-73
2023/05/30 11:19:15;;;;;;;3.25;0.70;;;15.30;65.90;;;;;;5060817;28;20828;-73
2023/05/30 11:22:01;;;;;;;1.83;0.57;;;15.30;65.90;;;;;;5066340;28;20053;-73
2023/05/30 11:24:29;;;;;;;3.15;0.80;;;15.30;66.00;;;;;;5066636;28;20049;-73
2023/05/30 11:27:07;;;;;;;2.80;1.00;;;15.30;66.10;;;;;;5065558;28;20455;-74
2023/05/30 11:29:47;;;;;;;2.13;0.70;;;15.30;66.10;;;;;;5067571;28;20053;-73
2023/05/30 11:32:18;;;;;;;2.60;0.70;;;15.40;65.70;;;;;;5085480;28;20297;-73
2023/05/30 11:34:45;;;;;;;2.58;0.82;;;15.40;65.60;;;;;;5084018;28;20136;-72
2023/05/30 11:37:12;;;;;;;2.95;0.80;;;15.40;65.60;;;;;;5079026;28;20060;-73
2023/05/30 11:39:39;;;;;;;3.10;0.90;;;15.40;65.80;;;;;;5053058;28;20483;-73
2023/05/30 11:42:08;;;;;;;2.23;0.67;;;15.40;65.90;;;;;;5068878;28;20048;-73
2023/05/30 11:44:35;;;;;;;3.42;0.60;;;15.50;66.00;;;;;;5076079;28;20291;-73
2023/05/30 11:47:05;;;;;;;2.20;0.70;;;15.50;66.10;;;;;;5073875;28;20053;-73
2023/05/30 11:49:32;;;;;;;2.97;0.90;;;15.60;66.20;;;;;;5071000;28;20053;-74
2023/05/30 11:52:01;;;;;;;3.00;0.80;;;15.60;65.80;;;;;;5075714;28;20053;-73
2023/05/30 11:54:28;;;;;;;2.87;1.00;;;15.60;66.00;;;;;;5072765;28;20165;-73
2023/05/30 11:56:56;;;;;;;3.05;0.80;;;15.60;66.00;;;;;;5113496;27;20256;-73
2023/05/30 11:59:25;;;;;;;2.83;1.10;;;15.60;66.00;;;;;;5076906;28;20053;-73
2023/05/30 12:05:32;;;;;;;3.17;0.90;;;15.60;65.60;;;;;;4974953;28;20162;-73
2023/05/30 12:08:05;;;;;;;3.50;1.00;;;15.60;65.80;;;;;;5023739;22;20075;-73
2023/05/30 12:10:32;;;;;;;5.18;1.20;;;15.60;66.00;;;;;;4987730;28;20294;-73
2023/05/30 12:13:00;;;;;;;3.85;1.13;;;15.70;66.10;;;;;;4987666;28;20055;-73
2023/05/30 12:15:27;;;;;;;5.70;1.50;;;15.70;66.00;;;;;;4986639;28;20054;-73
2023/05/30 12:17:54;;;;;;;3.05;1.05;;;15.80;66.00;;;;;;4978780;28;20203;-73
2023/05/30 12:20:22;;;;;;;2.70;1.00;;;15.80;65.80;;;;;;4989297;28;20050;-73
2023/05/30 12:22:50;;;;;;;4.10;1.15;;;15.80;65.60;;;;;;4987119;28;20255;-73
2023/05/30 12:25:17;;;;;;;3.17;1.10;;;15.80;65.40;;;;;;4999931;28;20398;-73
2023/05/30 12:27:46;;;;;;;47.22;6.07;;;15.80;65.20;;;;;;4987046;28;20062;-73
2023/05/30 12:30:15;;;;;;;11.98;1.52;;;15.80;65.00;;;;;;4987455;28;20051;-73
2023/05/30 12:32:42;;;;;;;2.80;0.83;;;15.80;65.00;;;;;;4988935;28;20114;-73
2023/05/30 12:35:11;;;;;;;3.53;1.00;;;15.90;65.00;;;;;;4987939;28;20293;-73
2023/05/30 12:37:38;;;;;;;2.60;0.98;;;15.90;64.90;;;;;;4986077;28;20054;-73
2023/05/30 12:40:08;;;;;;;2.78;0.80;;;15.90;64.90;;;;;;4983653;28;20115;-73
2023/05/30 12:42:36;;;;;;;2.78;0.80;;;15.90;65.10;;;;;;4983898;28;20082;-72
2023/05/30 12:45:05;;;;;;;2.70;0.97;;;15.90;64.90;;;;;;4979962;28;20062;-72
2023/05/30 12:47:32;;;;;;;3.38;0.80;;;15.90;64.70;;;;;;4990903;28;20255;-73
2023/05/30 12:50:00;;;;;;;2.33;0.70;;;15.90;64.60;;;;;;4988218;28;21014;-73
2023/05/30 12:52:28;;;;;;;2.45;0.70;;;15.90;64.40;;;;;;4965578;28;20857;-73
2023/05/30 12:54:56;;;;;;;2.58;0.60;;;16.00;64.30;;;;;;4995414;28;20051;-73
2023/05/30 12:57:25;;;;;;;2.37;0.70;;;16.00;64.30;;;;;;4986176;28;20436;-73
2023/05/30 12:59:53;;;;;;;2.75;0.80;;;16.00;64.20;;;;;;4979896;28;20395;-73